sensor_id;sensor_type;location;lat;lon;timestamp;temperature;humidity
19555;DHT22;9924;50.828;6.440;2022-08-01T00:01:39;21.30;99.90
19555;DHT22;9924;50.828;6.440;2022-08-01T00:04:05;21.30;99.90
19555;DHT22;9924;50.828;6.440;2022-08-01T00:06:30;21.30;99.90
19555;DHT22;9924;50.828;6.440;2022-08-01T00:08:56;21.20;99.90
19555;DHT22;9924;50.828;6.440;2022-08-01T00:11:22;21.20;99.90
19555;DHT22;9924;50.828;6.440;2022-08-01T00:13:48;21.20;99.90
19555;DHT22;9924;50.828;6.440;2022-08-01T00:16:14;21.20;99.90
19555;DHT22;9924;50.828;6.440;2022-08-01T00:18:39;21.20;99.90
19555;DHT22;9924;50.828;6.440;2022-08-01T00:21:05;21.20;99.90
19555;DHT22;9924;50.828;6.440;2022-08-01T00:23:31;21.20;99.90
19555;DHT22;9924;50.828;6.440;2022-08-01T00:25:57;21.10;99.90
19555;DHT22;9924;50.828;6.440;2022-08-01T00:28:22;21.00;99.90
19555;DHT22;9924;50.828;6.440;2022-08-01T00:30:48;21.00;99.90
19555;DHT22;9924;50.828;6.440;2022-08-01T00:33:14;21.00;99.90
19555;DHT22;9924;50.828;6.440;2022-08-01T00:35:40;21.00;99.90
19555;DHT22;9924;50.828;6.440;2022-08-01T00:38:06;21.00;99.90
19555;DHT22;9924;50.828;6.440;2022-08-01T00:40:31;20.90;99.90
19555;DHT22;9924;50.828;6.440;2022-08-01T00:42:57;20.90;99.90
19555;DHT22;9924;50.828;6.440;2022-08-01T00:45:23;20.80;99.90
19555;DHT22;9924;50.828;6.440;2022-08-01T00:47:49;20.70;99.90
19555;DHT22;9924;50.828;6.440;2022-08-01T00:50:14;20.70;99.90
19555;DHT22;9924;50.828;6.440;2022-08-01T00:52:41;20.70;99.90
19555;DHT22;9924;50.828;6.440;2022-08-01T00:55:09;20.70;99.90
19555;DHT22;9924;50.828;6.440;2022-08-01T00:57:37;20.70;99.90
19555;DHT22;9924;50.828;6.440;2022-08-01T01:00:05;20.70;99.90
19555;DHT22;9924;50.828;6.440;2022-08-01T01:02:31;20.70;99.90
19555;DHT22;9924;50.828;6.440;2022-08-01T01:04:57;20.70;99.90
19555;DHT22;9924;50.828;6.440;2022-08-01T01:07:32;20.70;99.90
19555;DHT22;9924;50.828;6.440;2022-08-01T01:13:09;20.50;99.90
19555;DHT22;9924;50.828;6.440;2022-08-01T01:15:43;20.30;99.90
19555;DHT22;9924;50.828;6.440;2022-08-01T01:18:12;20.10;99.90
19555;DHT22;9924;50.828;6.440;2022-08-01T01:20:43;20.00;99.90
19555;DHT22;9924;50.828;6.440;2022-08-01T01:31:25;19.80;99.90
19555;DHT22;9924;50.828;6.440;2022-08-01T01:33:53;19.80;99.90
19555;DHT22;9924;50.828;6.440;2022-08-01T01:36:19;19.80;99.90
19555;DHT22;9924;50.828;6.440;2022-08-01T01:38:46;19.80;99.90
19555;DHT22;9924;50.828;6.440;2022-08-01T01:41:16;19.80;99.90
19555;DHT22;9924;50.828;6.440;2022-08-01T01:43:43;19.80;99.90
19555;DHT22;9924;50.828;6.440;2022-08-01T01:46:12;19.80;99.90
19555;DHT22;9924;50.828;6.440;2022-08-01T01:48:43;19.80;99.90
19555;DHT22;9924;50.828;6.440;2022-08-01T01:51:11;19.80;99.90
19555;DHT22;9924;50.828;6.440;2022-08-01T01:53:38;19.90;99.90
19555;DHT22;9924;50.828;6.440;2022-08-01T01:56:06;19.90;99.90
19555;DHT22;9924;50.828;6.440;2022-08-01T01:58:34;19.80;99.90
19555;DHT22;9924;50.828;6.440;2022-08-01T03:07:52;20.20;99.90
19555;DHT22;9924;50.828;6.440;2022-08-01T03:10:19;20.20;99.90
19555;DHT22;9924;50.828;6.440;2022-08-01T03:12:46;20.20;99.90
19555;DHT22;9924;50.828;6.440;2022-08-01T03:15:14;20.20;99.90
19555;DHT22;9924;50.828;6.440;2022-08-01T03:17:42;20.30;99.90
19555;DHT22;9924;50.828;6.440;2022-08-01T03:20:12;20.20;99.90
19555;DHT22;9924;50.828;6.440;2022-08-01T03:22:39;20.30;99.90
19555;DHT22;9924;50.828;6.440;2022-08-01T03:25:07;20.30;99.90
19555;DHT22;9924;50.828;6.440;2022-08-01T03:27:35;20.30;99.90
19555;DHT22;9924;50.828;6.440;2022-08-01T03:30:04;20.30;99.90
19555;DHT22;9924;50.828;6.440;2022-08-01T03:32:30;20.30;99.90
19555;DHT22;9924;50.828;6.440;2022-08-01T03:34:57;20.30;99.90
19555;DHT22;9924;50.828;6.440;2022-08-01T03:37:34;20.30;99.90
19555;DHT22;9924;50.828;6.440;2022-08-01T03:40:13;20.30;99.90
19555;DHT22;9924;50.828;6.440;2022-08-01T03:42:48;20.30;99.90
19555;DHT22;9924;50.828;6.440;2022-08-01T03:45:27;20.20;99.90
19555;DHT22;9924;50.828;6.440;2022-08-01T03:47:59;20.20;99.90
19555;DHT22;9924;50.828;6.440;2022-08-01T03:50:27;20.20;99.90
19555;DHT22;9924;50.828;6.440;2022-08-01T03:52:54;20.20;99.90
19555;DHT22;9924;50.828;6.440;2022-08-01T03:55:23;20.30;99.90
19555;DHT22;9924;50.828;6.440;2022-08-01T03:57:50;20.20;99.90
19555;DHT22;9924;50.828;6.440;2022-08-01T04:00:17;20.20;99.90
19555;DHT22;9924;50.828;6.440;2022-08-01T04:02:47;20.20;99.90
19555;DHT22;9924;50.828;6.440;2022-08-01T04:05:17;20.10;99.90
19555;DHT22;9924;50.828;6.440;2022-08-01T04:07:47;20.20;99.90
19555;DHT22;9924;50.828;6.440;2022-08-01T04:10:16;20.20;99.90
19555;DHT22;9924;50.828;6.440;2022-08-01T04:12:42;20.20;99.90
19555;DHT22;9924;50.828;6.440;2022-08-01T04:15:08;20.20;99.90
19555;DHT22;9924;50.828;6.440;2022-08-01T04:17:34;20.20;99.90
19555;DHT22;9924;50.828;6.440;2022-08-01T04:19:59;20.20;99.90
19555;DHT22;9924;50.828;6.440;2022-08-01T04:22:26;20.20;99.90
19555;DHT22;9924;50.828;6.440;2022-08-01T04:24:55;20.20;99.90
19555;DHT22;9924;50.828;6.440;2022-08-01T04:27:25;20.30;99.90
19555;DHT22;9924;50.828;6.440;2022-08-01T04:29:56;20.30;99.90
19555;DHT22;9924;50.828;6.440;2022-08-01T04:32:25;20.30;99.90
19555;DHT22;9924;50.828;6.440;2022-08-01T04:34:54;20.30;99.90
19555;DHT22;9924;50.828;6.440;2022-08-01T04:37:22;20.40;99.90
19555;DHT22;9924;50.828;6.440;2022-08-01T04:39:52;20.30;99.90
19555;DHT22;9924;50.828;6.440;2022-08-01T04:42:19;20.30;99.90
19555;DHT22;9924;50.828;6.440;2022-08-01T04:44:45;20.40;99.90
19555;DHT22;9924;50.828;6.440;2022-08-01T04:47:11;20.40;99.90
19555;DHT22;9924;50.828;6.440;2022-08-01T04:49:39;20.40;99.90
19555;DHT22;9924;50.828;6.440;2022-08-01T04:52:06;20.40;99.90
19555;DHT22;9924;50.828;6.440;2022-08-01T04:54:34;20.50;99.90
19555;DHT22;9924;50.828;6.440;2022-08-01T04:57:03;20.50;99.90
19555;DHT22;9924;50.828;6.440;2022-08-01T04:59:30;20.50;99.90
19555;DHT22;9924;50.828;6.440;2022-08-01T05:02:14;20.60;99.90
19555;DHT22;9924;50.828;6.440;2022-08-01T05:04:41;20.70;99.90
19555;DHT22;9924;50.828;6.440;2022-08-01T05:07:08;20.70;99.90
19555;DHT22;9924;50.828;6.440;2022-08-01T05:09:34;20.70;99.90
19555;DHT22;9924;50.828;6.440;2022-08-01T05:12:02;20.80;99.90
19555;DHT22;9924;50.828;6.440;2022-08-01T05:14:28;20.80;99.90
19555;DHT22;9924;50.828;6.440;2022-08-01T05:17:01;20.70;99.90
19555;DHT22;9924;50.828;6.440;2022-08-01T05:19:32;20.80;99.90
19555;DHT22;9924;50.828;6.440;2022-08-01T05:21:59;20.70;99.90
19555;DHT22;9924;50.828;6.440;2022-08-01T05:24:29;20.80;99.90
19555;DHT22;9924;50.828;6.440;2022-08-01T05:26:58;20.80;99.90
19555;DHT22;9924;50.828;6.440;2022-08-01T05:29:24;20.80;99.90
19555;DHT22;9924;50.828;6.440;2022-08-01T05:31:51;20.80;99.90
19555;DHT22;9924;50.828;6.440;2022-08-01T05:34:17;20.80;99.90
19555;DHT22;9924;50.828;6.440;2022-08-01T05:36:44;20.80;99.90
19555;DHT22;9924;50.828;6.440;2022-08-01T05:39:10;20.80;99.90
19555;DHT22;9924;50.828;6.440;2022-08-01T05:41:36;20.90;99.90
19555;DHT22;9924;50.828;6.440;2022-08-01T05:44:04;20.90;99.90
19555;DHT22;9924;50.828;6.440;2022-08-01T05:46:30;20.90;99.90
19555;DHT22;9924;50.828;6.440;2022-08-01T05:48:57;20.90;99.90
19555;DHT22;9924;50.828;6.440;2022-08-01T05:51:22;20.90;99.90
19555;DHT22;9924;50.828;6.440;2022-08-01T05:53:48;21.00;99.90
19555;DHT22;9924;50.828;6.440;2022-08-01T05:56:14;21.00;99.90
19555;DHT22;9924;50.828;6.440;2022-08-01T05:58:40;21.00;99.90
19555;DHT22;9924;50.828;6.440;2022-08-01T06:01:06;21.10;99.90
19555;DHT22;9924;50.828;6.440;2022-08-01T06:03:32;21.10;99.90
19555;DHT22;9924;50.828;6.440;2022-08-01T06:05:59;21.20;99.90
19555;DHT22;9924;50.828;6.440;2022-08-01T06:08:25;21.30;99.90
19555;DHT22;9924;50.828;6.440;2022-08-01T06:10:51;21.40;99.90
19555;DHT22;9924;50.828;6.440;2022-08-01T06:13:17;21.40;99.90
19555;DHT22;9924;50.828;6.440;2022-08-01T06:15:44;21.40;99.90
19555;DHT22;9924;50.828;6.440;2022-08-01T06:18:10;21.40;99.90
19555;DHT22;9924;50.828;6.440;2022-08-01T06:20:36;21.30;99.90
19555;DHT22;9924;50.828;6.440;2022-08-01T06:23:02;21.20;99.90
19555;DHT22;9924;50.828;6.440;2022-08-01T06:25:28;21.10;99.90
19555;DHT22;9924;50.828;6.440;2022-08-01T06:27:54;21.10;99.90
19555;DHT22;9924;50.828;6.440;2022-08-01T06:30:20;21.10;99.90
19555;DHT22;9924;50.828;6.440;2022-08-01T06:32:46;21.10;99.90
19555;DHT22;9924;50.828;6.440;2022-08-01T06:35:13;21.20;99.90
19555;DHT22;9924;50.828;6.440;2022-08-01T06:37:40;21.20;99.90
19555;DHT22;9924;50.828;6.440;2022-08-01T06:40:09;21.30;99.90
19555;DHT22;9924;50.828;6.440;2022-08-01T06:42:36;21.30;99.90
19555;DHT22;9924;50.828;6.440;2022-08-01T06:45:05;21.30;99.90
19555;DHT22;9924;50.828;6.440;2022-08-01T06:47:32;21.20;99.90
19555;DHT22;9924;50.828;6.440;2022-08-01T06:49:58;21.10;99.90
19555;DHT22;9924;50.828;6.440;2022-08-01T06:52:24;21.10;99.90
19555;DHT22;9924;50.828;6.440;2022-08-01T06:54:51;21.00;99.90
19555;DHT22;9924;50.828;6.440;2022-08-01T06:57:17;21.00;99.90
19555;DHT22;9924;50.828;6.440;2022-08-01T06:59:44;21.00;99.90
19555;DHT22;9924;50.828;6.440;2022-08-01T07:02:10;21.00;99.90
19555;DHT22;9924;50.828;6.440;2022-08-01T07:04:36;21.00;99.90
19555;DHT22;9924;50.828;6.440;2022-08-01T07:07:02;21.10;99.90
19555;DHT22;9924;50.828;6.440;2022-08-01T07:09:28;21.30;99.90
19555;DHT22;9924;50.828;6.440;2022-08-01T07:11:54;21.50;99.90
19555;DHT22;9924;50.828;6.440;2022-08-01T07:14:21;21.60;99.90
19555;DHT22;9924;50.828;6.440;2022-08-01T07:16:48;21.70;99.90
19555;DHT22;9924;50.828;6.440;2022-08-01T07:19:14;21.70;99.90
19555;DHT22;9924;50.828;6.440;2022-08-01T07:21:40;21.70;99.90
19555;DHT22;9924;50.828;6.440;2022-08-01T07:24:09;21.60;99.90
19555;DHT22;9924;50.828;6.440;2022-08-01T07:26:35;21.70;99.90
19555;DHT22;9924;50.828;6.440;2022-08-01T07:29:02;21.70;99.90
19555;DHT22;9924;50.828;6.440;2022-08-01T07:31:28;21.80;99.90
19555;DHT22;9924;50.828;6.440;2022-08-01T07:33:54;21.80;99.90
19555;DHT22;9924;50.828;6.440;2022-08-01T07:36:21;21.90;99.90
19555;DHT22;9924;50.828;6.440;2022-08-01T07:38:47;21.90;99.90
19555;DHT22;9924;50.828;6.440;2022-08-01T07:41:14;21.90;99.90
19555;DHT22;9924;50.828;6.440;2022-08-01T07:43:40;21.90;99.90
19555;DHT22;9924;50.828;6.440;2022-08-01T07:46:06;21.90;99.90
19555;DHT22;9924;50.828;6.440;2022-08-01T07:48:36;22.10;99.90
19555;DHT22;9924;50.828;6.440;2022-08-01T07:51:02;22.20;99.90
19555;DHT22;9924;50.828;6.440;2022-08-01T07:53:28;22.40;99.90
19555;DHT22;9924;50.828;6.440;2022-08-01T07:55:56;22.70;99.90
19555;DHT22;9924;50.828;6.440;2022-08-01T07:58:22;22.90;99.90
19555;DHT22;9924;50.828;6.440;2022-08-01T08:00:49;23.20;99.90
19555;DHT22;9924;50.828;6.440;2022-08-01T08:03:15;23.40;99.90
19555;DHT22;9924;50.828;6.440;2022-08-01T08:05:42;23.40;99.90
19555;DHT22;9924;50.828;6.440;2022-08-01T08:08:09;23.50;99.90
19555;DHT22;9924;50.828;6.440;2022-08-01T08:10:36;23.40;99.90
19555;DHT22;9924;50.828;6.440;2022-08-01T08:13:02;23.40;99.90
19555;DHT22;9924;50.828;6.440;2022-08-01T08:15:29;23.50;99.90
19555;DHT22;9924;50.828;6.440;2022-08-01T08:17:55;23.70;99.90
19555;DHT22;9924;50.828;6.440;2022-08-01T08:20:22;23.90;99.90
19555;DHT22;9924;50.828;6.440;2022-08-01T08:22:51;24.10;99.90
19555;DHT22;9924;50.828;6.440;2022-08-01T08:25:19;24.10;99.90
19555;DHT22;9924;50.828;6.440;2022-08-01T08:27:46;24.00;99.90
19555;DHT22;9924;50.828;6.440;2022-08-01T08:30:12;24.00;99.90
19555;DHT22;9924;50.828;6.440;2022-08-01T08:32:39;23.90;99.90
19555;DHT22;9924;50.828;6.440;2022-08-01T08:35:06;23.70;99.90
19555;DHT22;9924;50.828;6.440;2022-08-01T08:37:33;23.60;99.90
19555;DHT22;9924;50.828;6.440;2022-08-01T08:40:03;23.40;99.90
19555;DHT22;9924;50.828;6.440;2022-08-01T08:42:30;23.30;99.90
19555;DHT22;9924;50.828;6.440;2022-08-01T08:44:56;23.30;99.90
19555;DHT22;9924;50.828;6.440;2022-08-01T08:47:24;23.30;99.90
19555;DHT22;9924;50.828;6.440;2022-08-01T08:49:53;23.10;99.90
19555;DHT22;9924;50.828;6.440;2022-08-01T08:52:19;23.10;99.90
19555;DHT22;9924;50.828;6.440;2022-08-01T08:54:47;23.00;99.90
19555;DHT22;9924;50.828;6.440;2022-08-01T08:57:14;22.90;99.90
19555;DHT22;9924;50.828;6.440;2022-08-01T08:59:42;22.80;99.90
19555;DHT22;9924;50.828;6.440;2022-08-01T09:02:10;22.90;99.90
19555;DHT22;9924;50.828;6.440;2022-08-01T09:04:36;23.20;99.90
19555;DHT22;9924;50.828;6.440;2022-08-01T09:07:04;23.70;99.90
19555;DHT22;9924;50.828;6.440;2022-08-01T09:09:31;24.10;99.90
19555;DHT22;9924;50.828;6.440;2022-08-01T09:11:57;24.50;99.90
19555;DHT22;9924;50.828;6.440;2022-08-01T09:14:23;24.60;99.90
19555;DHT22;9924;50.828;6.440;2022-08-01T09:17:01;24.70;99.90
19555;DHT22;9924;50.828;6.440;2022-08-01T09:19:37;24.80;99.90
19555;DHT22;9924;50.828;6.440;2022-08-01T09:22:06;24.70;99.90
19555;DHT22;9924;50.828;6.440;2022-08-01T09:24:34;24.80;99.90
19555;DHT22;9924;50.828;6.440;2022-08-01T09:27:02;24.60;99.90
19555;DHT22;9924;50.828;6.440;2022-08-01T09:29:41;24.40;99.90
19555;DHT22;9924;50.828;6.440;2022-08-01T09:32:07;24.40;99.90
19555;DHT22;9924;50.828;6.440;2022-08-01T09:34:33;24.20;99.90
19555;DHT22;9924;50.828;6.440;2022-08-01T09:37:01;24.20;99.90
19555;DHT22;9924;50.828;6.440;2022-08-01T09:39:31;24.20;99.90
19555;DHT22;9924;50.828;6.440;2022-08-01T09:41:59;24.20;99.90
19555;DHT22;9924;50.828;6.440;2022-08-01T09:44:42;24.20;99.90
19555;DHT22;9924;50.828;6.440;2022-08-01T09:47:09;23.90;99.90
19555;DHT22;9924;50.828;6.440;2022-08-01T09:49:37;23.50;99.90
19555;DHT22;9924;50.828;6.440;2022-08-01T09:52:29;23.50;99.90
19555;DHT22;9924;50.828;6.440;2022-08-01T09:54:58;23.80;99.90
19555;DHT22;9924;50.828;6.440;2022-08-01T09:57:26;23.80;99.90
19555;DHT22;9924;50.828;6.440;2022-08-01T09:59:58;23.90;99.90
19555;DHT22;9924;50.828;6.440;2022-08-01T10:02:38;23.70;99.90
19555;DHT22;9924;50.828;6.440;2022-08-01T10:05:09;23.70;99.90
19555;DHT22;9924;50.828;6.440;2022-08-01T10:07:36;23.60;99.90
19555;DHT22;9924;50.828;6.440;2022-08-01T10:10:19;23.70;99.90
19555;DHT22;9924;50.828;6.440;2022-08-01T10:12:45;23.80;99.90
19555;DHT22;9924;50.828;6.440;2022-08-01T10:15:15;23.90;99.90
19555;DHT22;9924;50.828;6.440;2022-08-01T10:17:47;24.00;99.90
19555;DHT22;9924;50.828;6.440;2022-08-01T10:20:16;24.10;99.90
19555;DHT22;9924;50.828;6.440;2022-08-01T10:22:43;24.00;99.90
19555;DHT22;9924;50.828;6.440;2022-08-01T10:25:09;24.00;99.90
19555;DHT22;9924;50.828;6.440;2022-08-01T10:27:36;24.30;99.90
19555;DHT22;9924;50.828;6.440;2022-08-01T10:30:04;24.50;99.90
19555;DHT22;9924;50.828;6.440;2022-08-01T10:32:34;24.80;99.90
19555;DHT22;9924;50.828;6.440;2022-08-01T10:35:01;24.90;99.90
19555;DHT22;9924;50.828;6.440;2022-08-01T10:37:27;24.90;99.90
19555;DHT22;9924;50.828;6.440;2022-08-01T10:39:54;24.90;99.90
19555;DHT22;9924;50.828;6.440;2022-08-01T10:42:21;25.10;99.90
19555;DHT22;9924;50.828;6.440;2022-08-01T10:44:47;25.30;99.90
19555;DHT22;9924;50.828;6.440;2022-08-01T10:47:15;25.60;99.90
19555;DHT22;9924;50.828;6.440;2022-08-01T10:49:51;25.60;99.90
19555;DHT22;9924;50.828;6.440;2022-08-01T10:52:20;25.60;99.90
19555;DHT22;9924;50.828;6.440;2022-08-01T10:54:46;25.60;99.90
19555;DHT22;9924;50.828;6.440;2022-08-01T10:57:13;25.80;99.90
19555;DHT22;9924;50.828;6.440;2022-08-01T10:59:51;26.30;99.90
19555;DHT22;9924;50.828;6.440;2022-08-01T11:02:28;26.50;99.90
19555;DHT22;9924;50.828;6.440;2022-08-01T11:05:07;26.90;99.90
19555;DHT22;9924;50.828;6.440;2022-08-01T11:07:48;26.90;99.90
19555;DHT22;9924;50.828;6.440;2022-08-01T11:10:24;27.00;99.90
19555;DHT22;9924;50.828;6.440;2022-08-01T11:12:50;27.10;99.90
19555;DHT22;9924;50.828;6.440;2022-08-01T11:15:19;27.10;99.90
19555;DHT22;9924;50.828;6.440;2022-08-01T11:17:54;27.00;99.90
19555;DHT22;9924;50.828;6.440;2022-08-01T11:20:31;26.90;99.90
19555;DHT22;9924;50.828;6.440;2022-08-01T11:26:05;26.20;99.90
19555;DHT22;9924;50.828;6.440;2022-08-01T11:30:49;26.00;99.90
19555;DHT22;9924;50.828;6.440;2022-08-01T11:33:17;26.00;99.90
19555;DHT22;9924;50.828;6.440;2022-08-01T11:38:39;26.60;99.90
19555;DHT22;9924;50.828;6.440;2022-08-01T11:41:26;27.10;99.90
19555;DHT22;9924;50.828;6.440;2022-08-01T11:49:29;28.40;99.90
19555;DHT22;9924;50.828;6.440;2022-08-01T11:52:02;28.60;99.90
19555;DHT22;9924;50.828;6.440;2022-08-01T11:54:31;28.50;99.90
19555;DHT22;9924;50.828;6.440;2022-08-01T11:57:05;28.20;99.90
19555;DHT22;9924;50.828;6.440;2022-08-01T11:59:45;28.10;99.90
19555;DHT22;9924;50.828;6.440;2022-08-01T12:02:29;28.20;99.90
19555;DHT22;9924;50.828;6.440;2022-08-01T12:05:08;28.00;99.90
19555;DHT22;9924;50.828;6.440;2022-08-01T12:07:36;28.20;99.90
19555;DHT22;9924;50.828;6.440;2022-08-01T12:10:16;28.20;99.90
19555;DHT22;9924;50.828;6.440;2022-08-01T12:12:54;28.20;99.90
19555;DHT22;9924;50.828;6.440;2022-08-01T12:15:22;28.20;99.90
19555;DHT22;9924;50.828;6.440;2022-08-01T12:17:51;28.00;99.90
19555;DHT22;9924;50.828;6.440;2022-08-01T12:20:21;27.90;99.90
19555;DHT22;9924;50.828;6.440;2022-08-01T12:22:53;27.80;99.90
19555;DHT22;9924;50.828;6.440;2022-08-01T12:25:19;27.80;99.90
19555;DHT22;9924;50.828;6.440;2022-08-01T12:27:51;27.70;99.90
19555;DHT22;9924;50.828;6.440;2022-08-01T12:30:20;27.60;99.90
19555;DHT22;9924;50.828;6.440;2022-08-01T12:32:52;27.90;99.90
19555;DHT22;9924;50.828;6.440;2022-08-01T12:35:20;28.60;99.90
19555;DHT22;9924;50.828;6.440;2022-08-01T12:37:50;28.90;99.90
19555;DHT22;9924;50.828;6.440;2022-08-01T12:40:25;28.90;99.90
19555;DHT22;9924;50.828;6.440;2022-08-01T12:43:05;28.30;99.90
19555;DHT22;9924;50.828;6.440;2022-08-01T12:45:39;28.00;99.90
19555;DHT22;9924;50.828;6.440;2022-08-01T12:48:14;27.90;99.90
19555;DHT22;9924;50.828;6.440;2022-08-01T12:50:45;27.90;99.90
19555;DHT22;9924;50.828;6.440;2022-08-01T12:53:12;28.10;99.90
19555;DHT22;9924;50.828;6.440;2022-08-01T12:55:49;28.20;99.90
19555;DHT22;9924;50.828;6.440;2022-08-01T12:58:16;28.00;99.90
19555;DHT22;9924;50.828;6.440;2022-08-01T13:00:45;27.90;99.90
19555;DHT22;9924;50.828;6.440;2022-08-01T13:03:18;27.70;99.90
19555;DHT22;9924;50.828;6.440;2022-08-01T13:05:48;27.70;99.90
19555;DHT22;9924;50.828;6.440;2022-08-01T13:08:17;27.90;99.90
19555;DHT22;9924;50.828;6.440;2022-08-01T13:10:43;27.80;99.90
19555;DHT22;9924;50.828;6.440;2022-08-01T13:13:10;27.60;99.90
19555;DHT22;9924;50.828;6.440;2022-08-01T13:15:38;27.20;99.90
19555;DHT22;9924;50.828;6.440;2022-08-01T13:18:50;27.10;99.90
19555;DHT22;9924;50.828;6.440;2022-08-01T13:21:20;27.00;99.90
19555;DHT22;9924;50.828;6.440;2022-08-01T13:24:12;27.00;99.90
19555;DHT22;9924;50.828;6.440;2022-08-01T13:26:55;27.00;99.90
19555;DHT22;9924;50.828;6.440;2022-08-01T13:29:37;27.00;99.90
19555;DHT22;9924;50.828;6.440;2022-08-01T13:34:43;26.80;99.90
19555;DHT22;9924;50.828;6.440;2022-08-01T13:37:09;26.90;99.90
19555;DHT22;9924;50.828;6.440;2022-08-01T13:39:35;27.00;99.90
19555;DHT22;9924;50.828;6.440;2022-08-01T13:42:15;27.00;99.90
19555;DHT22;9924;50.828;6.440;2022-08-01T13:44:43;26.90;99.90
19555;DHT22;9924;50.828;6.440;2022-08-01T13:47:12;26.90;99.90
19555;DHT22;9924;50.828;6.440;2022-08-01T13:49:38;27.10;99.90
19555;DHT22;9924;50.828;6.440;2022-08-01T13:52:05;27.30;99.90
19555;DHT22;9924;50.828;6.440;2022-08-01T13:54:34;27.70;99.90
19555;DHT22;9924;50.828;6.440;2022-08-01T13:56:59;28.00;99.90
19555;DHT22;9924;50.828;6.440;2022-08-01T13:59:26;27.80;99.90
19555;DHT22;9924;50.828;6.440;2022-08-01T14:01:52;27.50;99.90
19555;DHT22;9924;50.828;6.440;2022-08-01T14:04:17;27.30;99.90
19555;DHT22;9924;50.828;6.440;2022-08-01T14:06:44;27.10;99.90
19555;DHT22;9924;50.828;6.440;2022-08-01T14:09:10;26.90;99.90
19555;DHT22;9924;50.828;6.440;2022-08-01T14:11:35;27.00;99.90
19555;DHT22;9924;50.828;6.440;2022-08-01T14:14:01;27.00;99.90
19555;DHT22;9924;50.828;6.440;2022-08-01T14:16:27;27.00;99.90
19555;DHT22;9924;50.828;6.440;2022-08-01T14:18:53;27.00;99.90
19555;DHT22;9924;50.828;6.440;2022-08-01T14:21:19;27.00;99.90
19555;DHT22;9924;50.828;6.440;2022-08-01T14:23:45;27.00;99.90
19555;DHT22;9924;50.828;6.440;2022-08-01T14:26:11;27.00;99.90
19555;DHT22;9924;50.828;6.440;2022-08-01T14:28:39;27.20;99.90
19555;DHT22;9924;50.828;6.440;2022-08-01T14:31:06;27.60;99.90
19555;DHT22;9924;50.828;6.440;2022-08-01T14:33:31;27.60;99.90
19555;DHT22;9924;50.828;6.440;2022-08-01T14:35:58;27.80;99.90
19555;DHT22;9924;50.828;6.440;2022-08-01T14:38:23;27.90;99.90
19555;DHT22;9924;50.828;6.440;2022-08-01T14:40:49;27.70;99.90
19555;DHT22;9924;50.828;6.440;2022-08-01T14:43:19;27.70;99.90
19555;DHT22;9924;50.828;6.440;2022-08-01T14:45:45;27.90;99.90
19555;DHT22;9924;50.828;6.440;2022-08-01T14:48:17;28.00;99.90
19555;DHT22;9924;50.828;6.440;2022-08-01T14:50:44;28.40;99.90
19555;DHT22;9924;50.828;6.440;2022-08-01T14:53:10;28.60;99.60
19555;DHT22;9924;50.828;6.440;2022-08-01T14:55:36;28.40;99.90
19555;DHT22;9924;50.828;6.440;2022-08-01T14:58:02;28.20;99.90
19555;DHT22;9924;50.828;6.440;2022-08-01T15:00:29;27.80;99.90
19555;DHT22;9924;50.828;6.440;2022-08-01T15:02:55;27.50;99.90
19555;DHT22;9924;50.828;6.440;2022-08-01T15:05:26;27.30;99.90
19555;DHT22;9924;50.828;6.440;2022-08-01T15:07:54;27.20;99.90
19555;DHT22;9924;50.828;6.440;2022-08-01T15:10:20;27.10;99.90
19555;DHT22;9924;50.828;6.440;2022-08-01T15:12:46;27.00;99.90
19555;DHT22;9924;50.828;6.440;2022-08-01T15:15:13;27.10;99.90
19555;DHT22;9924;50.828;6.440;2022-08-01T15:17:38;27.00;99.90
19555;DHT22;9924;50.828;6.440;2022-08-01T15:20:06;27.20;99.90
19555;DHT22;9924;50.828;6.440;2022-08-01T15:22:33;27.20;99.90
19555;DHT22;9924;50.828;6.440;2022-08-01T15:25:00;27.30;99.90
19555;DHT22;9924;50.828;6.440;2022-08-01T15:27:27;27.60;99.90
19555;DHT22;9924;50.828;6.440;2022-08-01T15:29:54;28.20;99.90
19555;DHT22;9924;50.828;6.440;2022-08-01T15:32:21;28.70;99.90
19555;DHT22;9924;50.828;6.440;2022-08-01T15:34:47;28.90;99.90
19555;DHT22;9924;50.828;6.440;2022-08-01T15:37:13;29.10;99.90
19555;DHT22;9924;50.828;6.440;2022-08-01T15:39:40;29.30;99.90
19555;DHT22;9924;50.828;6.440;2022-08-01T15:42:10;29.30;99.90
19555;DHT22;9924;50.828;6.440;2022-08-01T15:44:37;28.70;99.90
19555;DHT22;9924;50.828;6.440;2022-08-01T15:47:06;28.00;99.90
19555;DHT22;9924;50.828;6.440;2022-08-01T15:49:37;27.50;99.90
19555;DHT22;9924;50.828;6.440;2022-08-01T15:52:20;27.20;99.90
19555;DHT22;9924;50.828;6.440;2022-08-01T15:54:47;27.20;99.90
19555;DHT22;9924;50.828;6.440;2022-08-01T15:57:14;27.30;99.90
19555;DHT22;9924;50.828;6.440;2022-08-01T15:59:40;27.50;99.90
19555;DHT22;9924;50.828;6.440;2022-08-01T16:02:06;27.80;99.90
19555;DHT22;9924;50.828;6.440;2022-08-01T16:04:32;28.00;99.90
19555;DHT22;9924;50.828;6.440;2022-08-01T16:06:59;27.90;99.90
19555;DHT22;9924;50.828;6.440;2022-08-01T16:09:25;27.80;99.90
19555;DHT22;9924;50.828;6.440;2022-08-01T16:11:51;27.90;99.90
19555;DHT22;9924;50.828;6.440;2022-08-01T16:14:18;28.00;99.90
19555;DHT22;9924;50.828;6.440;2022-08-01T16:16:46;27.90;99.90
19555;DHT22;9924;50.828;6.440;2022-08-01T16:19:12;27.60;99.90
19555;DHT22;9924;50.828;6.440;2022-08-01T16:21:38;27.10;99.90
19555;DHT22;9924;50.828;6.440;2022-08-01T16:24:04;26.70;99.90
19555;DHT22;9924;50.828;6.440;2022-08-01T16:26:30;26.70;99.90
19555;DHT22;9924;50.828;6.440;2022-08-01T16:28:56;26.70;99.90
19555;DHT22;9924;50.828;6.440;2022-08-01T16:31:22;26.40;99.90
19555;DHT22;9924;50.828;6.440;2022-08-01T16:33:48;26.20;99.90
19555;DHT22;9924;50.828;6.440;2022-08-01T16:36:15;26.20;99.90
19555;DHT22;9924;50.828;6.440;2022-08-01T16:38:41;26.20;99.90
19555;DHT22;9924;50.828;6.440;2022-08-01T16:41:08;26.40;99.90
19555;DHT22;9924;50.828;6.440;2022-08-01T16:43:34;26.70;99.90
19555;DHT22;9924;50.828;6.440;2022-08-01T16:45:59;27.00;99.90
19555;DHT22;9924;50.828;6.440;2022-08-01T16:48:26;27.20;99.90
19555;DHT22;9924;50.828;6.440;2022-08-01T16:50:52;27.20;99.90
19555;DHT22;9924;50.828;6.440;2022-08-01T16:53:19;27.20;99.90
19555;DHT22;9924;50.828;6.440;2022-08-01T16:55:45;27.00;99.90
19555;DHT22;9924;50.828;6.440;2022-08-01T16:58:19;26.90;99.90
19555;DHT22;9924;50.828;6.440;2022-08-01T17:00:46;26.60;99.90
19555;DHT22;9924;50.828;6.440;2022-08-01T17:03:13;26.60;99.90
19555;DHT22;9924;50.828;6.440;2022-08-01T17:05:39;27.10;99.90
19555;DHT22;9924;50.828;6.440;2022-08-01T17:08:06;27.70;99.90
19555;DHT22;9924;50.828;6.440;2022-08-01T17:10:35;27.90;99.90
19555;DHT22;9924;50.828;6.440;2022-08-01T17:13:02;27.90;99.90
19555;DHT22;9924;50.828;6.440;2022-08-01T17:15:28;28.10;99.90
19555;DHT22;9924;50.828;6.440;2022-08-01T17:17:54;28.60;99.90
19555;DHT22;9924;50.828;6.440;2022-08-01T17:20:21;28.70;99.90
19555;DHT22;9924;50.828;6.440;2022-08-01T17:22:47;28.90;99.90
19555;DHT22;9924;50.828;6.440;2022-08-01T17:25:13;28.90;99.90
19555;DHT22;9924;50.828;6.440;2022-08-01T17:27:41;29.20;99.90